Time;durP1;ratioP1;P1;durP2;ratioP2;P2;SDS_P1;SDS_P2;PMS_P1;PMS_P2;Temp;Humidity;BMP_temperature;BMP_pressure;BME280_temperature;BME280_humidity;BME280_pressure;Samples;Min_cycle;Max_cycle;Signal;HPM_P1;HPM_P2
2022/07/18 00:02:13;;;;;;;1.00;0.70;;;20.80;75.80;;;;;;4783092;29;20062;-78
2022/07/18 00:04:40;;;;;;;1.10;0.80;;;20.80;75.80;;;;;;4799393;29;20101;-78
2022/07/18 00:07:10;;;;;;;0.88;0.70;;;20.80;76.40;;;;;;4783775;29;20842;-78
2022/07/18 00:09:38;;;;;;;0.98;0.80;;;20.70;76.90;;;;;;4783756;29;20058;-78
2022/07/18 00:12:06;;;;;;;1.10;0.80;;;20.70;76.90;;;;;;4799882;29;20545;-78
2022/07/18 00:14:33;;;;;;;0.98;0.60;;;20.70;76.90;;;;;;4783317;29;20128;-78
2022/07/18 00:17:00;;;;;;;1.35;0.80;;;20.70;77.10;;;;;;4781692;29;20078;-78
2022/07/18 00:19:27;;;;;;;1.05;0.70;;;20.70;76.90;;;;;;4779895;30;20062;-78
2022/07/18 00:21:54;;;;;;;0.80;0.70;;;20.70;76.60;;;;;;4765740;30;20467;-77
2022/07/18 00:24:21;;;;;;;0.98;0.60;;;20.70;76.90;;;;;;4765213;30;20108;-79
2022/07/18 00:26:48;;;;;;;0.73;0.60;;;20.70;76.70;;;;;;4794053;29;20058;-78
2022/07/18 00:29:15;;;;;;;0.82;0.70;;;20.60;76.80;;;;;;4803955;29;20112;-78
2022/07/18 00:31:41;;;;;;;1.20;0.80;;;20.60;77.20;;;;;;4801520;29;20066;-78
2022/07/18 00:34:08;;;;;;;0.77;0.65;;;20.60;77.60;;;;;;4800389;29;20093;-77
2022/07/18 00:36:35;;;;;;;1.58;0.88;;;20.50;77.40;;;;;;4782909;29;20059;-78
2022/07/18 00:39:03;;;;;;;1.08;0.82;;;20.60;77.50;;;;;;4782843;29;20055;-77
2022/07/18 00:41:30;;;;;;;1.02;0.70;;;20.50;77.70;;;;;;4799349;29;20074;-79
2022/07/18 00:43:57;;;;;;;0.90;0.57;;;20.50;77.30;;;;;;4798477;29;20108;-78
2022/07/18 00:46:24;;;;;;;1.27;0.73;;;20.50;77.50;;;;;;4782766;29;20108;-78
2022/07/18 00:48:52;;;;;;;0.90;0.82;;;20.50;77.40;;;;;;4767064;29;20154;-78
2022/07/18 00:51:19;;;;;;;1.05;0.95;;;20.50;77.10;;;;;;4783269;29;20116;-78
2022/07/18 00:53:47;;;;;;;1.35;1.08;;;20.50;77.30;;;;;;4768136;29;20062;-77
2022/07/18 00:56:18;;;;;;;1.17;0.98;;;20.40;77.20;;;;;;4782122;29;20625;-78
2022/07/18 00:58:45;;;;;;;1.13;0.85;;;20.40;77.20;;;;;;4782509;29;20145;-78
2022/07/18 01:03:58;;;;;;;0.70;0.60;;;20.40;77.10;;;;;;4771810;29;20511;-78
2022/07/18 01:06:25;;;;;;;0.98;0.63;;;20.40;77.90;;;;;;4798498;29;20507;-78
2022/07/18 01:08:52;;;;;;;0.85;0.60;;;20.40;77.50;;;;;;4767238;29;20065;-77
2022/07/18 01:11:19;;;;;;;1.92;1.10;;;20.40;77.30;;;;;;4798466;29;20111;-78
2022/07/18 01:13:45;;;;;;;1.15;0.80;;;20.30;77.30;;;;;;4781999;29;20059;-78
2022/07/18 01:16:15;;;;;;;1.55;0.85;;;20.40;77.60;;;;;;4781852;29;20050;-79
2022/07/18 01:18:49;;;;;;;0.85;0.68;;;20.30;77.40;;;;;;4797332;29;20475;-78
2022/07/18 01:21:16;;;;;;;1.17;0.85;;;20.30;77.60;;;;;;4798039;29;20483;-77
2022/07/18 01:23:43;;;;;;;1.15;0.80;;;20.30;78.00;;;;;;4767533;29;20059;-77
2022/07/18 01:26:12;;;;;;;1.08;0.85;;;20.20;78.00;;;;;;4781950;29;20059;-79
2022/07/18 01:28:38;;;;;;;1.10;0.88;;;20.20;78.50;;;;;;4766272;29;20054;-80
2022/07/18 01:39:05;;;;;;;0.50;0.50;;;20.00;79.20;;;;;;5600974;24;20049;-88
2022/07/18 01:41:32;;;;;;;0.90;0.63;;;20.00;79.60;;;;;;4810864;29;20057;-88
2022/07/18 01:43:59;;;;;;;1.02;0.80;;;19.90;79.60;;;;;;4811429;29;20058;-88
2022/07/18 01:46:27;;;;;;;1.08;0.85;;;19.80;80.00;;;;;;4807994;29;20053;-89
2022/07/18 01:48:54;;;;;;;0.98;0.77;;;19.80;81.20;;;;;;4810559;29;20057;-89
2022/07/18 01:51:21;;;;;;;1.60;0.88;;;19.80;80.70;;;;;;4811585;29;20061;-88
2022/07/18 01:53:55;;;;;;;1.02;0.88;;;19.70;80.40;;;;;;4810975;29;20061;-88
2022/07/18 01:56:22;;;;;;;1.23;0.80;;;19.70;81.00;;;;;;4811135;29;20065;-88
2022/07/18 01:58:49;;;;;;;1.23;0.82;;;19.70;81.10;;;;;;4809961;29;20057;-88
2022/07/18 02:01:16;;;;;;;1.08;0.80;;;19.60;80.70;;;;;;4829001;29;20060;-88
2022/07/18 02:03:43;;;;;;;0.90;0.80;;;19.60;81.00;;;;;;4812073;29;20061;-88
2022/07/18 02:06:10;;;;;;;1.45;1.00;;;19.60;81.00;;;;;;4838322;29;20145;-88
2022/07/18 02:08:37;;;;;;;1.52;1.08;;;19.60;81.40;;;;;;4814256;29;20064;-89
2022/07/18 02:11:04;;;;;;;1.30;0.90;;;19.60;81.30;;;;;;4813063;29;20062;-88
2022/07/18 02:13:31;;;;;;;1.08;0.82;;;19.60;81.40;;;;;;4813270;29;20070;-89
2022/07/18 02:15:58;;;;;;;0.80;0.60;;;19.60;81.50;;;;;;4815873;29;20058;-87
2022/07/18 02:18:25;;;;;;;1.27;0.70;;;19.60;81.50;;;;;;4795556;29;20054;-87
2022/07/18 02:20:53;;;;;;;1.25;0.90;;;19.50;81.40;;;;;;4809815;29;20046;-88
2022/07/18 02:23:19;;;;;;;1.00;0.77;;;19.50;81.40;;;;;;4813590;29;20070;-87
2022/07/18 02:25:47;;;;;;;1.40;1.00;;;19.50;81.60;;;;;;4818787;29;20061;-87
2022/07/18 02:28:14;;;;;;;1.08;0.80;;;19.50;81.80;;;;;;4816739;29;20056;-88
2022/07/18 02:30:41;;;;;;;1.05;0.70;;;19.40;82.10;;;;;;4813869;29;20058;-87
2022/07/18 02:33:08;;;;;;;1.65;1.30;;;19.40;82.60;;;;;;4814085;29;20057;-87
2022/07/18 02:35:37;;;;;;;1.17;0.90;;;19.30;82.60;;;;;;4814093;29;20068;-86
2022/07/18 02:38:04;;;;;;;0.52;0.50;;;19.30;82.80;;;;;;4795947;29;20053;-88
2022/07/18 02:40:31;;;;;;;1.10;0.80;;;19.30;82.70;;;;;;4805680;29;20471;-88
2022/07/18 02:42:58;;;;;;;1.25;0.82;;;19.30;82.90;;;;;;4825152;29;20053;-88
2022/07/18 02:45:25;;;;;;;1.63;1.05;;;19.30;83.40;;;;;;4825413;29;20053;-87
2022/07/18 02:47:52;;;;;;;1.10;0.82;;;19.20;83.60;;;;;;4813992;29;20049;-87
2022/07/18 02:50:19;;;;;;;0.75;0.63;;;19.10;83.90;;;;;;4828273;29;20077;-88
2022/07/18 02:52:47;;;;;;;1.63;1.05;;;19.10;84.70;;;;;;4812198;29;20057;-86
2022/07/18 02:55:14;;;;;;;0.80;0.70;;;19.00;85.00;;;;;;4812083;29;20560;-87
2022/07/18 02:57:41;;;;;;;0.95;0.80;;;18.90;85.10;;;;;;4813259;29;20049;-86
2022/07/18 03:00:12;;;;;;;1.48;0.90;;;18.90;84.80;;;;;;4811485;29;20060;-87
2022/07/18 03:02:39;;;;;;;0.75;0.75;;;18.90;84.80;;;;;;4808516;29;20080;-87
2022/07/18 03:05:06;;;;;;;0.57;0.52;;;18.90;85.10;;;;;;4810028;29;20141;-88
2022/07/18 03:07:33;;;;;;;1.10;0.70;;;18.90;85.80;;;;;;4811920;29;20049;-87
2022/07/18 03:10:00;;;;;;;1.95;1.02;;;18.90;85.70;;;;;;4809251;29;20478;-87
2022/07/18 03:12:27;;;;;;;1.63;0.90;;;18.90;85.60;;;;;;4796012;29;20053;-87
2022/07/18 03:14:54;;;;;;;1.58;1.05;;;18.80;86.20;;;;;;4794658;29;20069;-87
2022/07/18 03:17:21;;;;;;;1.58;0.73;;;18.80;86.30;;;;;;4812998;29;20057;-87
2022/07/18 03:19:49;;;;;;;1.48;0.90;;;18.70;86.00;;;;;;4814410;29;20053;-86
2022/07/18 03:22:16;;;;;;;1.10;0.90;;;18.70;86.70;;;;;;4813286;29;20053;-88
2022/07/18 03:24:43;;;;;;;1.30;0.70;;;18.60;86.00;;;;;;4814042;29;20121;-88
2022/07/18 03:27:10;;;;;;;0.77;0.77;;;18.60;86.80;;;;;;4814799;29;20065;-87
2022/07/18 03:29:37;;;;;;;1.30;0.82;;;18.60;87.10;;;;;;4797159;29;20069;-88
2022/07/18 03:32:04;;;;;;;1.27;0.93;;;18.60;87.50;;;;;;4811920;29;20559;-88
2022/07/18 03:34:32;;;;;;;1.10;0.90;;;18.60;87.60;;;;;;4814997;29;20061;-87
2022/07/18 03:36:58;;;;;;;1.05;0.90;;;18.50;88.10;;;;;;4816060;29;20082;-88
2022/07/18 03:39:25;;;;;;;0.60;0.60;;;18.50;88.30;;;;;;4811059;29;20067;-88
2022/07/18 03:41:52;;;;;;;1.67;1.10;;;18.50;88.60;;;;;;4812481;29;20133;-88
2022/07/18 03:44:19;;;;;;;1.00;0.73;;;18.50;88.50;;;;;;4815878;29;20583;-88
2022/07/18 03:46:46;;;;;;;1.70;0.98;;;18.50;88.70;;;;;;4811404;29;20065;-88
2022/07/18 03:49:13;;;;;;;1.45;0.70;;;18.40;88.60;;;;;;4810961;29;20144;-88
2022/07/18 03:51:40;;;;;;;1.00;0.70;;;18.40;88.60;;;;;;4812582;29;20394;-88
2022/07/18 03:54:09;;;;;;;1.25;0.80;;;18.50;88.80;;;;;;4811594;29;20072;-87
2022/07/18 03:56:37;;;;;;;1.10;0.88;;;18.50;89.30;;;;;;4813420;29;20572;-87
2022/07/18 03:59:04;;;;;;;1.17;0.80;;;18.50;88.90;;;;;;4823500;29;20062;-87
2022/07/18 04:01:31;;;;;;;0.85;0.60;;;18.50;89.00;;;;;;4824317;29;20077;-88
2022/07/18 04:03:58;;;;;;;0.93;0.68;;;18.40;89.30;;;;;;4808041;29;20070;-89
2022/07/18 04:06:25;;;;;;;0.77;0.63;;;18.40;89.60;;;;;;4809243;29;20523;-89
2022/07/18 04:08:52;;;;;;;1.08;0.70;;;18.40;90.10;;;;;;4811249;29;20064;-88
2022/07/18 04:11:23;;;;;;;1.17;0.80;;;18.30;90.50;;;;;;4824822;29;20129;-88
2022/07/18 04:13:51;;;;;;;0.47;0.47;;;18.30;90.30;;;;;;4798434;29;20046;-88
2022/07/18 04:16:19;;;;;;;0.98;0.60;;;18.30;90.50;;;;;;4798670;29;20096;-88
2022/07/18 04:18:46;;;;;;;1.20;0.85;;;18.30;90.60;;;;;;4811793;29;20050;-87
2022/07/18 04:21:13;;;;;;;1.10;0.75;;;18.30;90.60;;;;;;4817359;29;20564;-87
2022/07/18 04:23:40;;;;;;;1.02;0.80;;;18.30;90.70;;;;;;4815312;29;20061;-88
2022/07/18 04:26:08;;;;;;;0.93;0.70;;;18.30;90.90;;;;;;4808861;29;20066;-88
2022/07/18 04:28:35;;;;;;;1.00;0.73;;;18.30;91.00;;;;;;4795852;29;20057;-88
2022/07/18 04:41:48;;;;;;;1.15;0.80;;;18.30;91.60;;;;;;4803671;29;20054;-87
2022/07/18 04:44:15;;;;;;;1.30;0.80;;;18.30;91.70;;;;;;4771749;29;20066;-89
2022/07/18 04:46:43;;;;;;;0.90;0.70;;;18.40;91.80;;;;;;4762011;29;20070;-87
2022/07/18 04:49:10;;;;;;;0.93;0.73;;;18.50;91.80;;;;;;4756501;29;20058;-87
2022/07/18 04:51:37;;;;;;;0.82;0.73;;;18.50;91.70;;;;;;4772779;29;20059;-88
2022/07/18 04:54:04;;;;;;;1.27;0.82;;;18.60;92.20;;;;;;4752461;29;20054;-88
2022/07/18 04:56:31;;;;;;;0.68;0.55;;;18.60;91.70;;;;;;4756150;30;20384;-88
2022/07/18 04:58:58;;;;;;;1.15;0.70;;;18.70;92.10;;;;;;4761109;30;20055;-88
2022/07/18 05:01:25;;;;;;;0.75;0.57;;;18.70;91.90;;;;;;4760684;29;20066;-87
2022/07/18 05:03:52;;;;;;;0.68;0.60;;;18.80;91.90;;;;;;4772023;29;20059;-87
2022/07/18 05:06:19;;;;;;;1.25;0.70;;;18.90;91.80;;;;;;4756631;30;20063;-88
2022/07/18 05:08:46;;;;;;;0.90;0.77;;;19.00;92.70;;;;;;4768948;30;20591;-88
2022/07/18 05:11:13;;;;;;;1.60;1.00;;;19.00;92.60;;;;;;4776351;29;20066;-88
2022/07/18 05:13:40;;;;;;;1.10;0.70;;;19.10;92.90;;;;;;4775806;29;20134;-87
2022/07/18 05:16:08;;;;;;;0.88;0.73;;;19.10;92.70;;;;;;4756506;29;20065;-87
2022/07/18 05:18:35;;;;;;;0.80;0.70;;;19.20;92.30;;;;;;4758102;29;20130;-89
2022/07/18 05:21:02;;;;;;;0.85;0.70;;;19.20;92.80;;;;;;4769067;29;20070;-90
2022/07/18 05:23:29;;;;;;;1.42;1.02;;;19.30;92.50;;;;;;4780234;29;20055;-90
2022/07/18 05:25:56;;;;;;;1.20;0.93;;;19.30;93.10;;;;;;4784102;29;20138;-89
2022/07/18 05:28:24;;;;;;;1.60;1.05;;;19.40;93.00;;;;;;4772278;29;20084;-89
2022/07/18 05:30:54;;;;;;;0.70;0.60;;;19.40;92.80;;;;;;4752321;29;20073;-89
2022/07/18 05:33:21;;;;;;;1.08;0.80;;;19.50;92.20;;;;;;4750997;30;20835;-89
2022/07/18 05:35:49;;;;;;;1.15;0.80;;;19.50;92.30;;;;;;4758994;30;20115;-89
2022/07/18 05:38:16;;;;;;;1.67;1.00;;;19.60;92.30;;;;;;4767346;30;20122;-89
2022/07/18 05:40:43;;;;;;;1.23;0.90;;;19.70;92.30;;;;;;4763424;30;20385;-88
2022/07/18 05:43:10;;;;;;;0.90;0.70;;;19.70;92.50;;;;;;4758753;30;20075;-89
2022/07/18 05:45:41;;;;;;;0.70;0.60;;;19.70;93.10;;;;;;4756271;30;20058;-89
2022/07/18 05:48:08;;;;;;;0.73;0.63;;;19.80;92.10;;;;;;4753492;30;20061;-90
2022/07/18 05:50:41;;;;;;;1.10;0.70;;;19.90;91.90;;;;;;4755354;29;20135;-90
2022/07/18 05:53:08;;;;;;;0.55;0.50;;;20.00;90.80;;;;;;4761345;30;20060;-89
2022/07/18 05:55:38;;;;;;;0.70;0.60;;;20.20;85.20;;;;;;4755433;30;20051;-90
2022/07/18 05:58:11;;;;;;;0.60;0.40;;;20.30;85.50;;;;;;4763597;30;20048;-90
2022/07/18 06:00:43;;;;;;;0.57;0.50;;;20.50;86.70;;;;;;4755167;30;20052;-91
2022/07/18 06:03:30;;;;;;;0.55;0.40;;;20.70;82.20;;;;;;4759734;30;20071;-90
2022/07/18 06:06:07;;;;;;;1.60;0.47;;;20.90;84.60;;;;;;4764948;30;20077;-92
2022/07/18 06:08:45;;;;;;;0.50;0.40;;;21.10;83.60;;;;;;4765882;30;20074;-92
2022/07/18 06:11:18;;;;;;;0.75;0.50;;;21.30;82.90;;;;;;4751440;30;20151;-90
2022/07/18 06:27:15;;;;;;;0.95;0.40;;;22.00;79.00;;;;;;4830077;29;20058;-79
2022/07/18 06:29:42;;;;;;;0.50;0.40;;;22.10;79.20;;;;;;4793077;29;20050;-78
2022/07/18 06:32:09;;;;;;;0.45;0.30;;;22.20;78.00;;;;;;4780302;29;20117;-78
2022/07/18 06:34:36;;;;;;;0.68;0.45;;;22.30;77.30;;;;;;4801655;29;20058;-78
2022/07/18 06:37:03;;;;;;;0.30;0.30;;;22.40;77.70;;;;;;4811285;29;20055;-78
2022/07/18 06:39:29;;;;;;;0.20;0.20;;;22.50;77.50;;;;;;4819207;29;20061;-79
2022/07/18 06:41:56;;;;;;;0.77;0.40;;;22.50;76.60;;;;;;4804023;29;20054;-79
2022/07/18 06:44:24;;;;;;;0.30;0.30;;;22.60;76.20;;;;;;4816264;29;20637;-79
2022/07/18 06:46:51;;;;;;;0.30;0.30;;;22.70;75.70;;;;;;4833807;29;20081;-78
2022/07/18 06:49:19;;;;;;;0.50;0.47;;;22.80;76.40;;;;;;4804546;29;20053;-78
2022/07/18 06:51:46;;;;;;;0.60;0.50;;;22.90;75.50;;;;;;4804219;29;20054;-78
2022/07/18 06:54:13;;;;;;;0.35;0.30;;;23.00;75.20;;;;;;4802579;29;20058;-78
2022/07/18 06:56:39;;;;;;;0.30;0.30;;;23.10;74.60;;;;;;4802962;29;20095;-78
2022/07/18 06:59:06;;;;;;;0.43;0.40;;;23.20;74.40;;;;;;4782299;29;20123;-78
2022/07/18 07:01:33;;;;;;;0.25;0.25;;;23.30;74.30;;;;;;4814338;29;20089;-78
2022/07/18 07:04:01;;;;;;;0.40;0.40;;;23.40;73.90;;;;;;4803423;29;20062;-78
2022/07/18 07:06:28;;;;;;;0.40;0.38;;;23.50;73.90;;;;;;4784282;29;20100;-78
2022/07/18 07:08:54;;;;;;;0.35;0.35;;;23.60;73.50;;;;;;4798608;29;20119;-78
2022/07/18 07:11:21;;;;;;;0.38;0.38;;;23.70;72.90;;;;;;4800321;29;20119;-78
2022/07/18 07:13:49;;;;;;;0.30;0.30;;;23.90;72.20;;;;;;4783586;29;20082;-79
2022/07/18 07:16:16;;;;;;;0.80;0.47;;;23.90;72.30;;;;;;4799777;29;20131;-79
2022/07/18 07:18:42;;;;;;;0.30;0.30;;;24.00;71.70;;;;;;4768249;29;20146;-79
2022/07/18 07:21:09;;;;;;;0.20;0.20;;;24.10;72.00;;;;;;4800079;29;20490;-78
2022/07/18 07:23:42;;;;;;;0.20;0.20;;;24.30;72.60;;;;;;4799517;29;20055;-79
2022/07/18 07:26:09;;;;;;;0.30;0.30;;;24.30;72.30;;;;;;4799552;29;20593;-78
2022/07/18 07:28:35;;;;;;;0.30;0.30;;;24.40;71.90;;;;;;4799634;29;20063;-79
2022/07/18 07:31:02;;;;;;;0.30;0.30;;;24.50;71.00;;;;;;4799337;29;20054;-78
2022/07/18 07:33:29;;;;;;;0.20;0.20;;;24.60;70.60;;;;;;4782996;29;20051;-79
2022/07/18 07:35:57;;;;;;;0.20;0.20;;;24.70;69.30;;;;;;4799963;29;20108;-78
2022/07/18 07:38:27;;;;;;;0.52;0.45;;;24.80;69.60;;;;;;4799675;29;20062;-78
2022/07/18 07:40:54;;;;;;;0.30;0.30;;;25.00;69.30;;;;;;4799711;29;20094;-78
2022/07/18 07:43:21;;;;;;;0.20;0.20;;;25.20;69.00;;;;;;4799723;29;20066;-78
2022/07/18 07:45:50;;;;;;;0.40;0.30;;;25.30;68.40;;;;;;4783496;29;20511;-77
2022/07/18 07:48:17;;;;;;;0.30;0.25;;;25.40;67.90;;;;;;4783660;29;20047;-78
2022/07/18 07:50:44;;;;;;;0.38;0.38;;;25.50;68.00;;;;;;4799205;29;20054;-78
2022/07/18 07:53:11;;;;;;;0.43;0.35;;;25.60;68.40;;;;;;4799372;29;20063;-78
2022/07/18 07:55:37;;;;;;;0.47;0.40;;;25.70;66.60;;;;;;4782722;29;20088;-78
2022/07/18 07:58:05;;;;;;;0.40;0.40;;;26.00;64.70;;;;;;4799000;29;20135;-78
2022/07/18 08:00:32;;;;;;;0.65;0.60;;;26.20;64.50;;;;;;4782741;29;20071;-78
2022/07/18 08:03:06;;;;;;;0.60;0.43;;;26.30;64.60;;;;;;4781812;29;20133;-78
2022/07/18 08:05:37;;;;;;;0.55;0.50;;;26.50;63.70;;;;;;4783421;29;20240;-78
2022/07/18 08:08:05;;;;;;;0.82;0.60;;;26.70;63.10;;;;;;4799093;29;20438;-78
2022/07/18 08:10:32;;;;;;;0.50;0.40;;;26.80;63.40;;;;;;4768306;29;20058;-78
2022/07/18 08:13:06;;;;;;;0.70;0.40;;;27.00;63.00;;;;;;4798099;29;20069;-78
2022/07/18 08:15:33;;;;;;;0.60;0.30;;;27.00;62.90;;;;;;4783109;29;20446;-78
2022/07/18 08:18:01;;;;;;;0.40;0.32;;;27.10;61.90;;;;;;4781846;29;20054;-77
2022/07/18 08:20:28;;;;;;;0.20;0.20;;;27.20;61.80;;;;;;4799226;29;20133;-77
2022/07/18 08:23:04;;;;;;;0.30;0.30;;;27.40;62.60;;;;;;4782539;29;20062;-77
2022/07/18 08:25:33;;;;;;;0.55;0.40;;;27.50;61.00;;;;;;4783448;29;20427;-78
2022/07/18 08:28:00;;;;;;;0.80;0.35;;;27.70;60.90;;;;;;4767779;29;20086;-78
2022/07/18 08:30:28;;;;;;;0.50;0.50;;;27.70;60.40;;;;;;4783156;29;20059;-77
2022/07/18 08:32:55;;;;;;;0.40;0.40;;;27.90;60.80;;;;;;4797432;29;20628;-77
2022/07/18 08:35:22;;;;;;;0.40;0.40;;;28.00;60.20;;;;;;4799009;29;20058;-78
2022/07/18 08:37:49;;;;;;;0.50;0.50;;;28.10;60.20;;;;;;4768162;29;20066;-78
2022/07/18 08:40:16;;;;;;;0.75;0.50;;;28.20;60.40;;;;;;4782476;29;20107;-78
2022/07/18 08:42:43;;;;;;;0.47;0.40;;;28.30;59.90;;;;;;4798851;29;20062;-78
2022/07/18 08:45:30;;;;;;;0.52;0.40;;;28.40;59.90;;;;;;4785238;29;20643;-78
2022/07/18 08:47:57;;;;;;;0.40;0.40;;;28.60;59.70;;;;;;4797462;29;20127;-78
2022/07/18 08:50:24;;;;;;;0.68;0.50;;;28.70;58.70;;;;;;4782792;29;20051;-78
2022/07/18 08:52:51;;;;;;;0.57;0.50;;;28.80;58.80;;;;;;4798483;29;20578;-78
2022/07/18 08:55:20;;;;;;;0.70;0.40;;;28.90;59.40;;;;;;4782798;29;20085;-78
2022/07/18 08:57:52;;;;;;;0.30;0.30;;;29.00;58.30;;;;;;4798521;29;20145;-78
2022/07/18 09:00:21;;;;;;;0.60;0.50;;;29.00;58.00;;;;;;4782553;29;20082;-78
2022/07/18 09:02:57;;;;;;;0.50;0.50;;;29.10;57.80;;;;;;4782287;29;20427;-78
2022/07/18 09:05:24;;;;;;;0.47;0.38;;;29.20;57.50;;;;;;4802410;29;20126;-78
2022/07/18 09:08:17;;;;;;;0.50;0.50;;;29.30;57.40;;;;;;4770154;29;20062;-79
2022/07/18 09:10:51;;;;;;;1.77;0.60;;;29.40;57.90;;;;;;4797142;29;20050;-78
2022/07/18 09:13:21;;;;;;;0.30;0.30;;;29.50;57.40;;;;;;4781545;29;20055;-78
2022/07/18 09:16:02;;;;;;;0.63;0.40;;;29.70;57.60;;;;;;4781911;29;20563;-78
2022/07/18 09:18:30;;;;;;;0.40;0.40;;;29.80;57.90;;;;;;4780996;29;20090;-78
2022/07/18 09:21:15;;;;;;;0.20;0.20;;;29.90;57.10;;;;;;4782815;29;20062;-79
2022/07/18 09:23:43;;;;;;;0.68;0.30;;;29.90;56.60;;;;;;4782412;29;20524;-79
2022/07/18 09:26:11;;;;;;;0.40;0.40;;;30.00;56.60;;;;;;4781830;29;20064;-78
2022/07/18 09:28:49;;;;;;;0.95;0.50;;;30.00;56.40;;;;;;4797617;29;20116;-79
2022/07/18 09:31:36;;;;;;;0.55;0.50;;;30.20;56.40;;;;;;4783954;29;20601;-78
2022/07/18 09:34:03;;;;;;;0.50;0.50;;;30.20;56.80;;;;;;4780960;29;20089;-78
2022/07/18 09:36:36;;;;;;;0.82;0.50;;;30.30;56.90;;;;;;4798321;29;20511;-78
2022/07/18 09:39:18;;;;;;;0.40;0.40;;;30.40;56.40;;;;;;4782225;29;20047;-78
2022/07/18 09:41:45;;;;;;;0.50;0.40;;;30.50;56.30;;;;;;4782108;29;20063;-79
2022/07/18 09:44:16;;;;;;;0.52;0.50;;;30.50;56.10;;;;;;4766082;29;20485;-78
2022/07/18 09:46:59;;;;;;;3.07;0.70;;;30.60;56.40;;;;;;4798286;29;20432;-79
2022/07/18 09:49:33;;;;;;;0.75;0.60;;;30.70;55.60;;;;;;4797593;29;20051;-79
2022/07/18 09:52:06;;;;;;;0.40;0.40;;;30.70;56.20;;;;;;4781820;29;20069;-78
2022/07/18 09:54:43;;;;;;;0.43;0.40;;;30.80;56.50;;;;;;4797194;29;20090;-78
2022/07/18 09:57:10;;;;;;;0.38;0.38;;;30.90;55.90;;;;;;4781852;29;20574;-79
2022/07/18 09:59:37;;;;;;;0.50;0.40;;;30.90;56.10;;;;;;4781728;29;20120;-79
2022/07/18 10:02:05;;;;;;;0.55;0.50;;;31.00;56.20;;;;;;4780741;29;20098;-78
2022/07/18 10:04:32;;;;;;;0.40;0.40;;;31.00;56.00;;;;;;4766745;29;20065;-79
2022/07/18 10:06:59;;;;;;;0.38;0.38;;;31.10;55.90;;;;;;4766697;29;20054;-78
2022/07/18 10:09:26;;;;;;;0.60;0.50;;;31.10;56.10;;;;;;4781359;29;20050;-79
2022/07/18 10:11:53;;;;;;;0.63;0.40;;;31.20;55.90;;;;;;4781709;29;20498;-79
2022/07/18 10:14:28;;;;;;;0.68;0.50;;;31.20;56.10;;;;;;4781993;29;20061;-78
2022/07/18 10:16:55;;;;;;;0.30;0.30;;;31.30;56.20;;;;;;4781214;29;20499;-78
2022/07/18 10:19:21;;;;;;;0.63;0.50;;;31.30;55.70;;;;;;4796912;29;20051;-80
2022/07/18 10:21:48;;;;;;;0.40;0.40;;;31.40;55.60;;;;;;4797597;29;20059;-78
2022/07/18 10:24:18;;;;;;;0.50;0.45;;;31.50;55.70;;;;;;4783710;29;20086;-78
2022/07/18 10:27:11;;;;;;;0.40;0.40;;;31.50;55.60;;;;;;4784924;29;20062;-77
2022/07/18 10:29:38;;;;;;;0.52;0.40;;;31.60;55.30;;;;;;4800382;29;20054;-78
2022/07/18 10:32:07;;;;;;;0.90;0.50;;;31.60;55.60;;;;;;4783430;29;20059;-78
2022/07/18 10:34:35;;;;;;;0.88;0.52;;;31.70;55.20;;;;;;4770444;29;20058;-77
2022/07/18 10:37:06;;;;;;;0.30;0.30;;;31.80;54.40;;;;;;4784860;29;20063;-78
2022/07/18 10:39:47;;;;;;;0.60;0.50;;;32.00;54.70;;;;;;4800895;29;20424;-78
2022/07/18 10:42:18;;;;;;;0.73;0.52;;;32.00;54.90;;;;;;4784696;29;20123;-78
2022/07/18 10:44:45;;;;;;;0.40;0.30;;;32.10;55.30;;;;;;4784109;29;20050;-78
2022/07/18 10:47:27;;;;;;;0.40;0.30;;;32.20;55.20;;;;;;4799371;29;20491;-78
2022/07/18 10:49:56;;;;;;;0.57;0.50;;;32.30;55.20;;;;;;4786106;29;20054;-78
2022/07/18 10:52:28;;;;;;;0.40;0.40;;;32.40;55.70;;;;;;4800266;29;20065;-78
2022/07/18 10:55:08;;;;;;;0.40;0.40;;;32.40;54.80;;;;;;4800204;29;20062;-78
2022/07/18 10:57:38;;;;;;;0.30;0.30;;;32.40;54.60;;;;;;4800641;29;20082;-78
2022/07/18 11:00:10;;;;;;;0.30;0.30;;;32.60;54.50;;;;;;4799779;29;20108;-78
2022/07/18 11:02:41;;;;;;;0.25;0.25;;;32.70;53.20;;;;;;4783319;29;20621;-78
2022/07/18 11:05:26;;;;;;;0.40;0.38;;;32.70;55.50;;;;;;4784154;29;20090;-78
2022/07/18 11:08:02;;;;;;;0.40;0.40;;;32.70;53.00;;;;;;4800035;29;20083;-77
2022/07/18 11:10:41;;;;;;;0.20;0.20;;;32.80;53.90;;;;;;4799687;29;20068;-78
2022/07/18 11:13:30;;;;;;;1.05;0.40;;;32.90;52.60;;;;;;4799773;29;20120;-78
2022/07/18 11:16:19;;;;;;;0.30;0.30;;;32.90;50.80;;;;;;4799906;29;20062;-78
2022/07/18 11:18:47;;;;;;;0.30;0.30;;;33.00;48.10;;;;;;4799412;29;20061;-78
2022/07/18 11:21:33;;;;;;;0.38;0.35;;;33.00;50.50;;;;;;4800328;29;20115;-78
2022/07/18 11:24:10;;;;;;;0.30;0.30;;;33.20;51.90;;;;;;4784272;29;20051;-78
2022/07/18 11:26:42;;;;;;;0.50;0.50;;;33.30;51.90;;;;;;4800415;29;20063;-79
2022/07/18 11:29:10;;;;;;;0.30;0.30;;;33.30;51.80;;;;;;4800261;29;20677;-78
2022/07/18 11:31:47;;;;;;;0.30;0.30;;;33.50;52.20;;;;;;4800274;29;20055;-79
2022/07/18 11:34:14;;;;;;;0.20;0.20;;;33.70;51.50;;;;;;4798608;29;20050;-78
2022/07/18 11:36:42;;;;;;;0.25;0.25;;;34.00;51.50;;;;;;4784370;29;20093;-78
2022/07/18 11:39:09;;;;;;;0.40;0.32;;;34.30;50.90;;;;;;4783951;29;20082;-79
2022/07/18 11:41:37;;;;;;;0.40;0.40;;;34.60;51.90;;;;;;4784192;29;20078;-78
2022/07/18 11:44:04;;;;;;;0.30;0.30;;;34.70;50.70;;;;;;4799393;29;20107;-79
2022/07/18 11:46:31;;;;;;;0.40;0.30;;;34.90;50.00;;;;;;4783943;29;20067;-78
2022/07/18 11:49:03;;;;;;;0.30;0.30;;;35.00;51.30;;;;;;4783221;29;20511;-78
2022/07/18 11:51:38;;;;;;;0.40;0.40;;;35.10;50.60;;;;;;4800302;29;20123;-78
2022/07/18 11:54:05;;;;;;;0.38;0.38;;;35.20;50.70;;;;;;4783073;29;20066;-78
2022/07/18 11:56:32;;;;;;;1.20;0.60;;;35.50;50.80;;;;;;4784465;29;20112;-78
2022/07/18 11:58:58;;;;;;;1.63;0.38;;;35.60;49.40;;;;;;4799391;29;20059;-78
2022/07/18 12:01:32;;;;;;;0.45;0.45;;;35.70;50.30;;;;;;4799606;29;20059;-78
2022/07/18 12:04:02;;;;;;;0.43;0.43;;;36.00;50.40;;;;;;4783526;29;20144;-78
2022/07/18 12:06:29;;;;;;;0.30;0.30;;;36.40;50.50;;;;;;4784014;29;20055;-78
2022/07/18 12:08:59;;;;;;;0.52;0.35;;;36.80;48.30;;;;;;4799097;29;20055;-78
2022/07/18 12:11:29;;;;;;;0.50;0.50;;;37.10;48.20;;;;;;4784171;29;20656;-78
2022/07/18 12:13:57;;;;;;;0.52;0.50;;;37.40;47.00;;;;;;4798852;29;20065;-78
2022/07/18 12:16:33;;;;;;;0.40;0.35;;;37.60;47.00;;;;;;4799493;29;20059;-78
2022/07/18 12:19:13;;;;;;;0.30;0.30;;;37.60;46.40;;;;;;4782825;29;20134;-78
2022/07/18 12:21:53;;;;;;;0.30;0.30;;;37.80;46.70;;;;;;4799331;29;20090;-78
2022/07/18 12:24:56;;;;;;;0.40;0.40;;;38.00;46.40;;;;;;4783089;29;20054;-78
2022/07/18 12:27:23;;;;;;;0.30;0.30;;;38.30;46.70;;;;;;4799376;29;20256;-78
2022/07/18 12:30:04;;;;;;;0.60;0.40;;;38.60;46.00;;;;;;4782933;29;20444;-78
2022/07/18 12:32:55;;;;;;;0.32;0.30;;;39.00;45.30;;;;;;4798897;29;20114;-78
2022/07/18 12:35:31;;;;;;;0.30;0.30;;;39.30;45.40;;;;;;4798917;29;20051;-78
2022/07/18 12:37:58;;;;;;;0.90;0.20;;;39.70;45.20;;;;;;4798714;29;20128;-78
2022/07/18 12:40:26;;;;;;;0.20;0.20;;;40.00;45.20;;;;;;4798654;29;20416;-78
2022/07/18 12:43:15;;;;;;;0.90;0.35;;;40.30;44.60;;;;;;4754997;29;20058;-78
2022/07/18 12:45:42;;;;;;;0.50;0.38;;;40.60;42.90;;;;;;4800941;29;20062;-78
2022/07/18 12:48:10;;;;;;;0.30;0.30;;;40.50;43.20;;;;;;4800061;29;20050;-78
2022/07/18 12:50:38;;;;;;;0.40;0.40;;;40.40;42.20;;;;;;4814657;29;20054;-78
2022/07/18 12:53:05;;;;;;;0.30;0.30;;;40.30;42.50;;;;;;4782123;29;20059;-78
2022/07/18 12:55:32;;;;;;;0.30;0.30;;;40.50;42.20;;;;;;4798529;29;20047;-79
2022/07/18 12:58:01;;;;;;;0.52;0.30;;;40.20;42.60;;;;;;4781862;29;20414;-77
2022/07/18 13:00:29;;;;;;;0.30;0.30;;;40.30;42.30;;;;;;4797800;29;20058;-80
2022/07/18 13:02:57;;;;;;;0.45;0.40;;;40.40;42.70;;;;;;4765813;29;20050;-78
2022/07/18 13:05:25;;;;;;;0.38;0.38;;;40.50;41.50;;;;;;4794768;29;20063;-78
2022/07/18 13:07:52;;;;;;;0.35;0.35;;;40.70;42.90;;;;;;4797042;29;20133;-78
2022/07/18 13:10:19;;;;;;;0.30;0.30;;;40.90;42.90;;;;;;4800601;29;20078;-78
2022/07/18 13:12:46;;;;;;;0.30;0.30;;;41.30;41.90;;;;;;4796780;29;20054;-77
2022/07/18 13:15:13;;;;;;;0.45;0.40;;;41.50;41.90;;;;;;4797400;29;20062;-78
2022/07/18 13:17:39;;;;;;;0.30;0.30;;;41.80;41.60;;;;;;4797673;29;20058;-80
2022/07/18 13:20:07;;;;;;;0.30;0.30;;;42.00;41.70;;;;;;4797669;29;20103;-79
2022/07/18 13:22:37;;;;;;;0.25;0.25;;;42.40;42.10;;;;;;4798188;29;20137;-80
2022/07/18 13:25:08;;;;;;;0.30;0.30;;;42.80;41.50;;;;;;4805237;29;20109;-79
2022/07/18 13:27:35;;;;;;;0.25;0.25;;;42.90;40.70;;;;;;4798460;29;20059;-79
2022/07/18 13:30:03;;;;;;;0.45;0.40;;;43.10;40.70;;;;;;4796688;29;20059;-79
2022/07/18 13:32:31;;;;;;;0.30;0.30;;;43.30;40.30;;;;;;4765467;29;20477;-78
2022/07/18 13:34:57;;;;;;;0.38;0.38;;;43.40;40.20;;;;;;4798737;29;20537;-78